Pagina principale
METAR-TAF:

METAR-TAF

Aeroporti :

Aeroporto di Maun

Maun, Botswana

latitudine: 19-59S, longitudine: 023-25E, altezza: 945 m

Osservazione

Il bollettino è stato emesso 14 ore e 42 minuti fa, alle 05:00 UTC
Vento 4 kt da nord-est
Temperature 14°C
Umidità 51%
Pressione 1019 hPa
Visibilità 10 km o più
nessuna nube inferiore a 1500 m e nessun cumulonembo

METAR: FBMN 210500Z 05004KT CAVOK 14/04 Q1019

Ora: 21:42 (19:42 UTC)

Previsione

Il bollettino è stato emesso 16 ore e 42 minuti fa, alle 03:00 UTC
Previsione valida dal 21 alle 06 UTC al 21 alle 15 UTC
Vento 10 kt da nord/nord-est
Visibilità 10 km o più
nessuna nube inferiore a 1500 m e nessun cumulonembo

TAF: FBMN 210300Z 2106/2115 03010KT CAVOK

Osservazioni e previsioni meteorologiche di più di 4000 aeroporti (messaggi METAR e TAF).

Le stazioni disponibili sono rappresentate dai dischi gialli e rossi sulla carta.

Puntare il mouse per vedere il nome della stazione.

Clicca sopra per visualizzare le osservazioni e previsioni meteorologiche.

Per cambiare la mappa : fare clic sui pulsanti verdi con una croce nera per ingrandire, il pulsante verde con un trattino per diminuire, o sulla freccia verde per le mappe adiacenti.


METAR-TAF: